Weather History for Fredericksburg, TX

Change the Weather History Date:

Thursday, April 10, 2014

  Actual Average (KSAT) Record (KSAT)
Temperature  
Mean Temperature 72 °F 68 °F  
Max Temperature 86 °F 79 °F 95 °F (1963)
Min Temperature 57 °F 57 °F 37 °F (1973)
Degree Days  
Heating Degree Days 0 2  
Month to date heating degree days 22  
Since 1 July heating degree days 1477  
Cooling Degree Days 6 5  
Month to date cooling degree days 41  
Year to date cooling degree days 132  
Growing Degree Days 22 (Base 50)    
Moisture  
Dew Point 48 °F    
Average Humidity 50    
Maximum Humidity 76    
Minimum Humidity 22    
Precipitation  
Precipitation 0.00 in 0.06 in 1.44 in (1978)
Month to date precipitation 0.59  
Year to date precipitation 6.45  
Snow  
Snow 0.00 in - - ()
Month to date snowfall  
Since 1 July snowfall  
Snow Depth -    
Sea Level Pressure  
Sea Level Pressure 30.02 in    
Wind  
Wind Speed 9 mph (South)    
Max Wind Speed 21 mph    
Max Gust Speed 28 mph    
Visibility 10 miles    
Events      
T = Trace of Precipitation, MM = Missing Value Source: NWS Daily Summary

Daily Weather History Graph

Daily Weather History Graph

Search for Another Location

Airport:

Trip Planner

Search our weather history database for the weather conditions in past years. The results will help you decide how hot, cold, wet, or windy it might be!

Date:

Astronomy

Apr. 10, 2014 Rise Set
Actual Time 7:14 AM CDT 8:00 PM CDT
Civil Twilight 6:49 AM CDT 8:24 PM CDT
Nautical Twilight 6:21 AM CDT 8:53 PM CDT
Astronomical Twilight 5:51 AM CDT 9:22 PM CDT
Moon 4:02 PM CDT (4/10) 4:19 AM CDT (4/10)
Length of Visible Light 13h 34m
Length of Day
12h 45m
Waxing Gibbous, 80% of the Moon is Illuminated
Apr 10
Waxing Gibbous
Apr 15
Full
Apr 22
Last Quarter
Apr 29
New
May 6
First Quarter

Hourly Weather History & Observations

Time (CDT) Temp. Dew Point Humidity Pressure Visibility Wind Dir Wind Speed Gust Speed Precip Events Conditions
12:15 AM 64.2 °F 51.3 °F 63% 30.13 in 10.0 mi South 6.9 mph - N/A   Clear
12:35 AM 63.0 °F 51.4 °F 66% 30.13 in 10.0 mi SSE 3.5 mph - N/A   Clear
12:55 AM 62.4 °F 51.6 °F 68% 30.13 in 10.0 mi SSE 3.5 mph - N/A   Clear
1:15 AM 61.7 °F 52.0 °F 70% 30.12 in 10.0 mi SSE 6.9 mph - N/A   Clear
1:35 AM 61.5 °F 52.2 °F 71% 30.12 in 10.0 mi SSE 6.9 mph - N/A   Clear
1:55 AM 60.8 °F 52.0 °F 73% 30.11 in 10.0 mi South 5.8 mph - N/A   Clear
2:15 AM 60.1 °F 51.4 °F 73% 30.11 in 10.0 mi South 4.6 mph - N/A   Clear
2:35 AM 59.4 °F 51.1 °F 74% 30.10 in 10.0 mi South 5.8 mph - N/A   Clear
2:55 AM 59.2 °F 50.7 °F 74% 30.09 in 10.0 mi South 6.9 mph - N/A   Clear
3:15 AM 59.9 °F 50.7 °F 72% 30.09 in 10.0 mi South 4.6 mph - N/A   Clear
3:35 AM 58.5 °F 50.0 °F 73% 30.08 in 10.0 mi South 4.6 mph - N/A   Clear
3:55 AM 57.9 °F 49.3 °F 73% 30.08 in 10.0 mi South 3.5 mph - N/A   Clear
4:15 AM 58.8 °F 49.1 °F 70% 30.08 in 10.0 mi SSW 5.8 mph - N/A   Clear
4:35 AM 58.1 °F 48.6 °F 71% 30.07 in 10.0 mi SSW 4.6 mph - N/A   Clear
4:55 AM 58.6 °F 48.6 °F 69% 30.07 in 10.0 mi SSW 6.9 mph - N/A   Clear
5:15 AM 58.3 °F 49.1 °F 71% 30.07 in 10.0 mi SW 8.1 mph - N/A   Clear
5:35 AM 58.5 °F 49.3 °F 72% 30.06 in 10.0 mi SSW 6.9 mph - N/A   Clear
5:55 AM 57.7 °F 49.3 °F 73% 30.06 in 10.0 mi SW 8.1 mph - N/A   Clear
6:15 AM 57.7 °F 49.3 °F 73% 30.06 in 10.0 mi SW 5.8 mph - N/A   Clear
6:35 AM 58.1 °F 49.5 °F 73% 30.06 in 10.0 mi SW 6.9 mph - N/A   Clear
6:55 AM 57.9 °F 49.3 °F 73% 30.06 in 10.0 mi SW 6.9 mph - N/A   Clear
7:15 AM 57.6 °F 49.3 °F 74% 30.06 in 10.0 mi SW 4.6 mph - N/A   Clear
7:35 AM 57.6 °F 50.0 °F 76% 30.07 in 10.0 mi SW 4.6 mph - N/A   Clear
7:55 AM 57.9 °F 50.4 °F 76% 30.07 in 10.0 mi SW 4.6 mph - N/A   Clear
8:15 AM 59.7 °F 50.4 °F 71% 30.07 in 10.0 mi SW 6.9 mph - N/A   Clear
8:35 AM 61.3 °F 50.7 °F 68% 30.08 in 10.0 mi SW 9.2 mph - N/A   Clear
8:55 AM 62.8 °F 50.2 °F 63% 30.08 in 10.0 mi SSW 8.1 mph 18.4 mph N/A   Clear
9:15 AM 65.1 °F 49.8 °F 58% 30.08 in 10.0 mi SSW 10.4 mph 21.9 mph N/A   Clear
9:55 AM 68.7 °F 48.0 °F 48% 30.08 in 10.0 mi SSW 17.3 mph 23.0 mph N/A   Clear
10:15 AM 69.8 °F 47.8 °F 46% 30.08 in 10.0 mi SSW 13.8 mph 25.3 mph N/A   Clear
10:35 AM 72.0 °F 48.2 °F 43% 30.08 in 10.0 mi South 15.0 mph 23.0 mph N/A   Clear
10:55 AM 73.6 °F 48.6 °F 41% 30.07 in 10.0 mi South 15.0 mph 19.6 mph N/A   Clear
11:15 AM 74.5 °F 49.6 °F 42% 30.07 in 10.0 mi South 19.6 mph - N/A   Clear
11:35 AM 75.4 °F 49.5 °F 40% 30.07 in 10.0 mi South 13.8 mph 18.4 mph N/A   Clear
11:55 AM 77.2 °F 48.6 °F 36% 30.06 in 10.0 mi South 12.7 mph 23.0 mph N/A   Clear
12:15 PM 78.3 °F 48.7 °F 35% 30.05 in 10.0 mi South 16.1 mph 23.0 mph N/A   Clear
12:35 PM 79.0 °F 46.6 °F 32% 30.04 in 10.0 mi South 19.6 mph 25.3 mph N/A   Clear
12:55 PM 81.0 °F 46.6 °F 30% 30.03 in 10.0 mi SSW 20.7 mph 25.3 mph N/A   Clear
1:15 PM 81.7 °F 46.4 °F 29% 30.02 in 10.0 mi SSW 17.3 mph 25.3 mph N/A   Clear
1:35 PM 82.6 °F 45.3 °F 27% 30.01 in 10.0 mi SSW 16.1 mph 26.5 mph N/A   Clear
1:55 PM 83.1 °F 44.6 °F 26% 30.00 in 10.0 mi SSW 19.6 mph 25.3 mph N/A   Clear
2:35 PM 84.2 °F 44.1 °F 24% 29.99 in 10.0 mi SSW 19.6 mph 24.2 mph N/A   Clear
2:55 PM 84.4 °F 45.1 °F 25% 29.98 in 10.0 mi South 18.4 mph 27.6 mph N/A   Clear
3:15 PM 84.7 °F 45.5 °F 25% 29.97 in 10.0 mi SSW 13.8 mph 23.0 mph N/A   Clear
3:35 PM 85.3 °F 46.0 °F 25% 29.96 in 10.0 mi South 15.0 mph 23.0 mph N/A   Clear
3:55 PM 85.8 °F 45.7 °F 25% 29.95 in 10.0 mi South 16.1 mph 21.9 mph N/A   Clear
4:15 PM 86.4 °F 45.0 °F 24% 29.94 in 10.0 mi South 17.3 mph 23.0 mph N/A   Clear
4:35 PM 86.4 °F 44.4 °F 23% 29.94 in 10.0 mi South 18.4 mph 26.5 mph N/A   Clear
4:55 PM 85.8 °F 44.6 °F 24% 29.93 in 10.0 mi South 15.0 mph 24.2 mph N/A   Clear
5:15 PM 86.2 °F 43.2 °F 22% 29.93 in 10.0 mi South 18.4 mph 25.3 mph N/A   Clear
5:35 PM 85.3 °F 43.0 °F 23% 29.92 in 10.0 mi South 18.4 mph 25.3 mph N/A   Clear
5:55 PM 84.6 °F 43.0 °F 23% 29.92 in 10.0 mi South 15.0 mph 20.7 mph N/A   Clear
6:15 PM 83.7 °F 42.4 °F 23% 29.93 in 10.0 mi South 16.1 mph 25.3 mph N/A   Clear
6:35 PM 82.9 °F 43.0 °F 24% 29.93 in 10.0 mi South 10.4 mph 21.9 mph N/A   Clear
6:55 PM 82.4 °F 42.8 °F 25% 29.93 in 10.0 mi South 13.8 mph 18.4 mph N/A   Clear
7:15 PM 81.7 °F 42.6 °F 25% 29.94 in 10.0 mi South 13.8 mph 19.6 mph N/A   Clear
7:35 PM 80.4 °F 43.0 °F 26% 29.94 in 10.0 mi South 9.2 mph - N/A   Clear
7:55 PM 79.5 °F 43.2 °F 27% 29.94 in 10.0 mi South 9.2 mph - N/A   Clear
8:15 PM 78.1 °F 43.7 °F 29% 29.94 in 10.0 mi SSE 8.1 mph - N/A   Clear
8:35 PM 77.5 °F 44.2 °F 31% 29.94 in 10.0 mi SSE 6.9 mph - N/A   Clear
8:55 PM 76.8 °F 44.4 °F 32% 29.94 in 10.0 mi SSE 6.9 mph - N/A   Clear
9:15 PM 76.1 °F 44.6 °F 33% 29.95 in 10.0 mi SSE 8.1 mph - N/A   Clear
9:35 PM 74.8 °F 48.9 °F 40% 29.96 in 10.0 mi SSE 10.4 mph - N/A   Clear
9:55 PM 72.7 °F 55.8 °F 55% 29.98 in 10.0 mi SSE 6.9 mph 16.1 mph N/A   Clear
10:15 PM 71.4 °F 56.5 °F 59% 29.98 in 10.0 mi SSE 10.4 mph - N/A   Clear
10:35 PM 70.0 °F 56.8 °F 63% 29.99 in 10.0 mi South 8.1 mph - N/A   Clear
10:55 PM 68.7 °F 56.8 °F 66% 30.00 in 10.0 mi South 6.9 mph - N/A   Clear
11:15 PM 67.8 °F 56.7 °F 67% 29.99 in 10.0 mi SSE 6.9 mph - N/A   Clear
11:35 PM 66.6 °F 56.5 °F 70% 29.99 in 10.0 mi South 6.9 mph - N/A   Clear
11:55 PM 65.7 °F 56.3 °F 72% 30.00 in 10.0 mi South 9.2 mph - N/A   Clear